Time;durP1;ratioP1;P1;durP2;ratioP2;P2;SDS_P1;SDS_P2;PMS_P1;PMS_P2;Temp;Humidity;BMP_temperature;BMP_pressure;BME280_temperature;BME280_humidity;BME280_pressure;Samples;Min_cycle;Max_cycle;Signal;HPM_P1;HPM_P2
2021/03/05 00:00:59;;;;;;;42.33;10.98;;;;;;;;;;5070673;28;20024;-68
2021/03/05 00:03:25;;;;;;;32.20;9.95;;;;;;;;;;5068428;28;20031;-68
2021/03/05 00:05:52;;;;;;;29.25;9.05;;;;;;;;;;5068574;28;20135;-68
2021/03/05 00:08:17;;;;;;;33.53;8.93;;;;;;;;;;5066881;28;20020;-68
2021/03/05 00:10:43;;;;;;;35.78;11.45;;;;;;;;;;5070654;28;20075;-67
2021/03/05 00:13:08;;;;;;;30.23;8.30;;;;;;;;;;5070403;28;20032;-69
2021/03/05 00:15:34;;;;;;;37.30;8.60;;;;;;;;;;5070013;28;20036;-67
2021/03/05 00:18:00;;;;;;;24.33;7.32;;;;;;;;;;5069261;28;20055;-67
2021/03/05 00:20:26;;;;;;;42.30;8.65;;;;;;;;;;5069727;28;20439;-67
2021/03/05 00:22:51;;;;;;;25.52;6.53;;;;;;;;;;5070394;28;20107;-67
2021/03/05 00:25:16;;;;;;;37.80;9.20;;;;;;;;;;5069940;28;20178;-67
2021/03/05 00:27:42;;;;;;;31.95;8.52;;;;;;;;;;5069517;28;20157;-67
2021/03/05 00:30:08;;;;;;;23.05;6.32;;;;;;;;;;5068862;28;20028;-67
2021/03/05 00:32:36;;;;;;;24.65;6.90;;;;;;;;;;5067638;28;20037;-67
2021/03/05 00:35:03;;;;;;;43.17;6.93;;;;;;;;;;5069984;28;20024;-67
2021/03/05 00:37:28;;;;;;;32.10;6.38;;;;;;;;;;5069776;28;20021;-67
2021/03/05 00:39:54;;;;;;;24.38;6.72;;;;;;;;;;5070669;28;20024;-67
2021/03/05 00:42:19;;;;;;;45.75;7.13;;;;;;;;;;5069569;28;20099;-68
2021/03/05 00:44:44;;;;;;;36.25;7.50;;;;;;;;;;5070289;28;20052;-68
2021/03/05 00:47:09;;;;;;;30.40;7.07;;;;;;;;;;5067573;28;20469;-67
2021/03/05 00:49:35;;;;;;;41.90;8.45;;;;;;;;;;5069770;28;20555;-67
2021/03/05 00:52:00;;;;;;;26.70;7.40;;;;;;;;;;5070517;28;20510;-67
2021/03/05 00:54:25;;;;;;;41.80;8.40;;;;;;;;;;5069562;28;20027;-67
2021/03/05 00:56:50;;;;;;;31.63;7.40;;;;;;;;;;5067932;28;20016;-67
2021/03/05 00:59:15;;;;;;;37.85;7.78;;;;;;;;;;5063694;28;20059;-67
2021/03/05 01:01:41;;;;;;;34.80;7.25;;;;;;;;;;5069413;28;20029;-67
2021/03/05 01:04:06;;;;;;;25.15;7.82;;;;;;;;;;5069449;28;20501;-67
2021/03/05 01:06:31;;;;;;;40.42;8.00;;;;;;;;;;5067707;28;20032;-67
2021/03/05 01:08:56;;;;;;;36.65;9.30;;;;;;;;;;5070171;28;20035;-67
2021/03/05 01:11:22;;;;;;;42.92;8.75;;;;;;;;;;5068436;28;20036;-67
2021/03/05 01:13:47;;;;;;;28.35;7.55;;;;;;;;;;5068580;28;20103;-67
2021/03/05 01:16:12;;;;;;;40.28;8.43;;;;;;;;;;5065010;28;20178;-67
2021/03/05 01:18:38;;;;;;;37.38;8.40;;;;;;;;;;5069942;28;20162;-67
2021/03/05 01:21:04;;;;;;;17.30;7.90;;;;;;;;;;5067899;28;20484;-67
2021/03/05 01:23:29;;;;;;;41.53;8.38;;;;;;;;;;5068990;28;20024;-67
2021/03/05 01:25:55;;;;;;;27.17;7.25;;;;;;;;;;5069070;28;20092;-66
2021/03/05 01:28:20;;;;;;;32.47;7.28;;;;;;;;;;5073407;28;20100;-67
2021/03/05 01:30:45;;;;;;;27.33;7.53;;;;;;;;;;5072709;28;20383;-67
2021/03/05 01:33:10;;;;;;;32.03;7.32;;;;;;;;;;5073060;28;20068;-67
2021/03/05 01:35:36;;;;;;;39.38;8.98;;;;;;;;;;5069674;28;20029;-67
2021/03/05 01:38:01;;;;;;;34.13;8.20;;;;;;;;;;5064255;28;20422;-67
2021/03/05 01:40:37;;;;;;;41.63;9.25;;;;;;;;;;5071875;28;20017;-67
2021/03/05 01:43:06;;;;;;;36.05;8.82;;;;;;;;;;5073127;28;20021;-67
2021/03/05 01:45:31;;;;;;;29.48;8.32;;;;;;;;;;5071376;28;20027;-67
2021/03/05 01:48:01;;;;;;;38.20;8.38;;;;;;;;;;5056374;28;20021;-67
2021/03/05 01:50:28;;;;;;;25.83;8.52;;;;;;;;;;5064094;28;20504;-68
2021/03/05 01:53:01;;;;;;;32.92;10.10;;;;;;;;;;5072272;28;20047;-67
2021/03/05 01:55:27;;;;;;;32.65;8.90;;;;;;;;;;5072500;28;20024;-67
2021/03/05 01:57:52;;;;;;;45.95;10.25;;;;;;;;;;5071429;28;20116;-67
2021/03/05 02:00:19;;;;;;;33.63;8.70;;;;;;;;;;5073245;28;20033;-67
2021/03/05 02:02:45;;;;;;;28.38;8.20;;;;;;;;;;5072758;28;20598;-67
2021/03/05 02:05:10;;;;;;;50.05;9.77;;;;;;;;;;5072699;28;20096;-67
2021/03/05 02:07:35;;;;;;;49.97;8.15;;;;;;;;;;5070850;28;20131;-67
2021/03/05 02:10:01;;;;;;;44.55;9.25;;;;;;;;;;5071885;28;20074;-67
2021/03/05 02:12:26;;;;;;;28.88;10.35;;;;;;;;;;5071013;28;20501;-67
2021/03/05 02:14:51;;;;;;;45.67;9.77;;;;;;;;;;5059030;28;20028;-67
2021/03/05 02:17:37;;;;;;;31.73;8.07;;;;;;;;;;5064409;28;20476;-67
2021/03/05 02:20:03;;;;;;;31.00;8.95;;;;;;;;;;5073423;28;20024;-66
2021/03/05 02:22:47;;;;;;;26.20;9.13;;;;;;;;;;5071070;28;20403;-67
2021/03/05 02:25:27;;;;;;;34.83;10.00;;;;;;;;;;5069931;28;20021;-67
2021/03/05 02:27:52;;;;;;;46.83;12.13;;;;;;;;;;5070281;28;20029;-67
2021/03/05 02:30:21;;;;;;;38.13;11.73;;;;;;;;;;5072810;28;20089;-67
2021/03/05 02:33:11;;;;;;;43.88;13.25;;;;;;;;;;5071032;28;20036;-67
2021/03/05 02:35:36;;;;;;;47.20;14.32;;;;;;;;;;5071868;28;20024;-67
2021/03/05 02:38:03;;;;;;;59.20;15.70;;;;;;;;;;5066869;22;20049;-67
2021/03/05 02:40:30;;;;;;;53.03;13.73;;;;;;;;;;5051381;28;20432;-67
2021/03/05 02:43:02;;;;;;;46.80;14.25;;;;;;;;;;5051737;28;20025;-67
2021/03/05 02:45:29;;;;;;;51.45;13.50;;;;;;;;;;5052315;28;20078;-67
2021/03/05 02:47:56;;;;;;;51.65;14.20;;;;;;;;;;5033677;28;20021;-67
2021/03/05 02:50:24;;;;;;;56.13;14.25;;;;;;;;;;5048415;28;20530;-68
2021/03/05 02:52:51;;;;;;;48.90;13.05;;;;;;;;;;5051727;28;20096;-67
2021/03/05 02:55:17;;;;;;;50.08;14.63;;;;;;;;;;5051503;28;20059;-68
2021/03/05 02:57:45;;;;;;;66.18;14.98;;;;;;;;;;5050842;28;20029;-67
2021/03/05 03:00:10;;;;;;;57.63;15.68;;;;;;;;;;5023438;28;20017;-67
2021/03/05 03:02:36;;;;;;;51.67;15.07;;;;;;;;;;5051636;28;20020;-67
2021/03/05 03:05:03;;;;;;;63.42;16.48;;;;;;;;;;5051733;28;20041;-67
2021/03/05 03:07:29;;;;;;;66.25;14.60;;;;;;;;;;5050620;28;20045;-67
2021/03/05 03:09:54;;;;;;;56.60;16.17;;;;;;;;;;5051514;28;20063;-67
2021/03/05 03:12:19;;;;;;;64.68;15.13;;;;;;;;;;5051030;28;20025;-67
2021/03/05 03:14:46;;;;;;;68.97;15.90;;;;;;;;;;5067494;28;20178;-67
2021/03/05 03:17:12;;;;;;;55.72;15.57;;;;;;;;;;5050913;28;20047;-69
2021/03/05 03:19:38;;;;;;;62.80;15.70;;;;;;;;;;5051549;28;20035;-67
2021/03/05 03:22:04;;;;;;;53.65;15.25;;;;;;;;;;5051780;28;20013;-67
2021/03/05 03:24:32;;;;;;;60.65;15.40;;;;;;;;;;5033281;28;20150;-67
2021/03/05 03:26:58;;;;;;;60.75;16.10;;;;;;;;;;5050655;28;20095;-67
2021/03/05 03:29:24;;;;;;;58.28;16.90;;;;;;;;;;5051327;28;20485;-67
2021/03/05 03:31:49;;;;;;;41.28;14.60;;;;;;;;;;5051327;28;20083;-67
2021/03/05 03:34:14;;;;;;;55.05;15.80;;;;;;;;;;5051292;28;20163;-67
2021/03/05 03:36:40;;;;;;;77.22;15.60;;;;;;;;;;5040595;28;20024;-67
2021/03/05 03:39:06;;;;;;;59.53;14.85;;;;;;;;;;5051884;28;20024;-67
2021/03/05 03:41:32;;;;;;;52.13;15.95;;;;;;;;;;5051292;28;20143;-67
2021/03/05 03:43:58;;;;;;;56.95;14.95;;;;;;;;;;5051243;28;20059;-67
2021/03/05 03:46:23;;;;;;;60.78;15.65;;;;;;;;;;5049922;28;20095;-67
2021/03/05 03:48:51;;;;;;;65.57;18.40;;;;;;;;;;5050747;28;20055;-67
2021/03/05 03:51:20;;;;;;;76.40;21.58;;;;;;;;;;5050696;28;20024;-67
2021/03/05 03:53:45;;;;;;;58.22;17.50;;;;;;;;;;5056297;28;20461;-67
2021/03/05 03:56:11;;;;;;;56.95;18.45;;;;;;;;;;5056825;28;20040;-67
2021/03/05 03:58:38;;;;;;;64.05;19.52;;;;;;;;;;5050888;28;20024;-67
2021/03/05 04:01:07;;;;;;;59.55;21.15;;;;;;;;;;5050644;28;20017;-67
2021/03/05 04:03:33;;;;;;;55.00;18.58;;;;;;;;;;5050496;28;20571;-67
2021/03/05 04:05:59;;;;;;;54.95;20.00;;;;;;;;;;5050186;28;20025;-67
2021/03/05 04:08:24;;;;;;;48.95;19.45;;;;;;;;;;5050073;28;20503;-67
2021/03/05 04:10:50;;;;;;;42.72;19.63;;;;;;;;;;5051142;28;20029;-67
2021/03/05 04:13:15;;;;;;;54.03;22.08;;;;;;;;;;5049798;28;20021;-67
2021/03/05 04:15:41;;;;;;;48.15;20.10;;;;;;;;;;5031872;28;20100;-67
2021/03/05 04:18:06;;;;;;;55.40;21.73;;;;;;;;;;5050186;28;20052;-68
2021/03/05 04:20:34;;;;;;;49.33;21.40;;;;;;;;;;5050431;28;20424;-68
2021/03/05 04:23:00;;;;;;;48.78;21.17;;;;;;;;;;5049943;28;20381;-67
2021/03/05 04:25:25;;;;;;;55.17;22.70;;;;;;;;;;5031264;28;20025;-67
2021/03/05 04:27:50;;;;;;;51.63;21.70;;;;;;;;;;5050055;28;20541;-67
2021/03/05 04:30:15;;;;;;;50.83;22.63;;;;;;;;;;5050247;28;20048;-67
2021/03/05 04:32:42;;;;;;;53.83;23.65;;;;;;;;;;5050292;28;20263;-67
2021/03/05 04:35:08;;;;;;;48.60;21.08;;;;;;;;;;5047023;28;20066;-67
2021/03/05 04:37:33;;;;;;;56.95;21.55;;;;;;;;;;5048557;28;20064;-67
2021/03/05 04:39:58;;;;;;;52.65;22.70;;;;;;;;;;5051115;28;20051;-68
2021/03/05 04:42:24;;;;;;;56.17;23.65;;;;;;;;;;5051581;28;20021;-67
2021/03/05 04:44:49;;;;;;;47.80;20.75;;;;;;;;;;5048608;28;20116;-68
2021/03/05 04:47:14;;;;;;;47.78;22.63;;;;;;;;;;5049950;28;20021;-67
2021/03/05 04:49:39;;;;;;;49.88;23.10;;;;;;;;;;5049661;28;20035;-68
2021/03/05 04:52:04;;;;;;;51.70;22.20;;;;;;;;;;5050299;28;20036;-67
2021/03/05 04:54:30;;;;;;;54.13;22.13;;;;;;;;;;5047067;28;20033;-68
2021/03/05 04:56:55;;;;;;;52.38;22.67;;;;;;;;;;5049403;28;20074;-68
2021/03/05 04:59:20;;;;;;;48.83;22.15;;;;;;;;;;5049902;28;20025;-68
2021/03/05 05:01:46;;;;;;;55.70;23.55;;;;;;;;;;5050119;28;20103;-68
2021/03/05 05:04:11;;;;;;;42.78;20.92;;;;;;;;;;5045384;28;20507;-68
2021/03/05 05:06:36;;;;;;;47.08;21.25;;;;;;;;;;5046412;28;20075;-68
2021/03/05 05:09:02;;;;;;;37.97;18.52;;;;;;;;;;5030227;28;20047;-68
2021/03/05 05:11:27;;;;;;;37.30;17.85;;;;;;;;;;5047572;28;20078;-68
2021/03/05 05:13:52;;;;;;;36.72;17.27;;;;;;;;;;5048077;28;20534;-68
2021/03/05 05:16:18;;;;;;;37.80;17.70;;;;;;;;;;5047674;28;20484;-68
2021/03/05 05:18:43;;;;;;;34.08;15.73;;;;;;;;;;5046847;28;20037;-68
2021/03/05 05:21:08;;;;;;;31.38;15.07;;;;;;;;;;5046771;28;20021;-68
2021/03/05 05:23:33;;;;;;;31.67;14.80;;;;;;;;;;5047082;28;20087;-68
2021/03/05 05:25:58;;;;;;;28.63;13.65;;;;;;;;;;5046626;28;20033;-68
2021/03/05 05:28:24;;;;;;;27.50;14.82;;;;;;;;;;5029920;28;20036;-68
2021/03/05 05:30:49;;;;;;;32.22;14.80;;;;;;;;;;5046756;28;20021;-68
2021/03/05 05:33:14;;;;;;;31.80;15.00;;;;;;;;;;5045873;28;20029;-68
2021/03/05 05:35:39;;;;;;;27.88;14.38;;;;;;;;;;5049353;28;20029;-68
2021/03/05 05:38:05;;;;;;;31.40;14.27;;;;;;;;;;5047622;28;20432;-68
2021/03/05 05:40:30;;;;;;;26.50;14.25;;;;;;;;;;5046584;28;20029;-68
2021/03/05 05:42:55;;;;;;;28.95;14.40;;;;;;;;;;5045552;28;20024;-68
2021/03/05 05:45:21;;;;;;;34.90;15.25;;;;;;;;;;5023997;28;20025;-68
2021/03/05 05:47:46;;;;;;;28.70;15.52;;;;;;;;;;5047717;28;20029;-68
2021/03/05 05:50:11;;;;;;;29.60;14.60;;;;;;;;;;5047121;28;20427;-68
2021/03/05 05:52:37;;;;;;;31.35;15.55;;;;;;;;;;5046992;28;20037;-68
2021/03/05 05:55:03;;;;;;;28.73;14.85;;;;;;;;;;5033435;28;20396;-68
2021/03/05 05:57:29;;;;;;;32.22;15.70;;;;;;;;;;5044530;28;20013;-68
2021/03/05 05:59:56;;;;;;;32.75;15.75;;;;;;;;;;5047080;28;20484;-67
2021/03/05 06:02:22;;;;;;;32.70;16.05;;;;;;;;;;5045231;28;20441;-68
2021/03/05 06:04:47;;;;;;;34.13;15.95;;;;;;;;;;5047404;28;20123;-68
2021/03/05 06:07:13;;;;;;;32.00;16.58;;;;;;;;;;5046226;28;20123;-68
2021/03/05 06:09:39;;;;;;;30.50;15.82;;;;;;;;;;5046917;28;20060;-68
2021/03/05 06:12:13;;;;;;;32.55;15.15;;;;;;;;;;5047058;28;20027;-68
2021/03/05 06:14:41;;;;;;;32.33;17.05;;;;;;;;;;5031959;28;20028;-68
2021/03/05 06:17:07;;;;;;;29.80;15.85;;;;;;;;;;5050751;28;20061;-68
2021/03/05 06:19:32;;;;;;;31.35;15.27;;;;;;;;;;5049792;28;20041;-68
2021/03/05 06:21:58;;;;;;;31.92;15.95;;;;;;;;;;5050187;28;20013;-67
2021/03/05 06:24:23;;;;;;;32.97;15.23;;;;;;;;;;5050000;28;20048;-68
2021/03/05 06:26:55;;;;;;;30.15;13.48;;;;;;;;;;5050602;28;20059;-68
2021/03/05 06:29:24;;;;;;;32.17;15.57;;;;;;;;;;5050056;28;20040;-68
2021/03/05 06:31:54;;;;;;;27.08;14.30;;;;;;;;;;5044730;28;20430;-68
2021/03/05 06:34:19;;;;;;;27.13;14.93;;;;;;;;;;5049937;28;20025;-68
2021/03/05 06:36:55;;;;;;;33.42;15.70;;;;;;;;;;5049680;28;20435;-68
2021/03/05 06:39:23;;;;;;;29.90;14.10;;;;;;;;;;5050446;28;20132;-68
2021/03/05 06:41:56;;;;;;;31.30;14.77;;;;;;;;;;5031724;28;20063;-68
2021/03/05 06:44:22;;;;;;;23.90;14.02;;;;;;;;;;5049914;28;20044;-68
2021/03/05 06:46:47;;;;;;;27.30;12.95;;;;;;;;;;5047151;28;20032;-68
2021/03/05 06:49:13;;;;;;;25.52;13.20;;;;;;;;;;5049187;28;20642;-67
2021/03/05 06:51:39;;;;;;;29.10;13.65;;;;;;;;;;5049951;28;20094;-68
2021/03/05 06:54:05;;;;;;;22.77;12.73;;;;;;;;;;5048540;28;20021;-68
2021/03/05 06:56:32;;;;;;;23.55;12.05;;;;;;;;;;5065131;28;20115;-68
2021/03/05 06:58:58;;;;;;;23.27;13.07;;;;;;;;;;5050179;28;20048;-68
2021/03/05 07:01:23;;;;;;;28.20;13.35;;;;;;;;;;5049636;28;20036;-68
2021/03/05 07:04:02;;;;;;;21.38;11.63;;;;;;;;;;5049490;28;20074;-68
2021/03/05 07:06:28;;;;;;;23.42;12.02;;;;;;;;;;5033850;28;20024;-68
2021/03/05 07:08:53;;;;;;;21.52;12.13;;;;;;;;;;5047128;28;20027;-68
2021/03/05 07:11:44;;;;;;;21.67;11.48;;;;;;;;;;5051007;28;20092;-68
2021/03/05 07:14:11;;;;;;;21.20;12.00;;;;;;;;;;5047080;28;20037;-68
2021/03/05 07:16:41;;;;;;;22.55;10.63;;;;;;;;;;5051858;28;20025;-68
2021/03/05 07:19:06;;;;;;;22.67;11.90;;;;;;;;;;5051581;28;20381;-68
2021/03/05 07:21:36;;;;;;;17.23;9.98;;;;;;;;;;5051003;28;20036;-68
2021/03/05 07:24:02;;;;;;;17.58;9.55;;;;;;;;;;5051733;28;20025;-68
2021/03/05 07:26:29;;;;;;;20.05;9.82;;;;;;;;;;5051022;28;20025;-68
2021/03/05 07:28:55;;;;;;;15.57;8.77;;;;;;;;;;5050399;28;20033;-68
2021/03/05 07:31:23;;;;;;;16.50;9.05;;;;;;;;;;5051061;28;20070;-68
2021/03/05 07:33:49;;;;;;;18.80;9.40;;;;;;;;;;5050948;28;20096;-68
2021/03/05 07:36:15;;;;;;;14.35;8.15;;;;;;;;;;5050569;28;20028;-68
2021/03/05 07:38:43;;;;;;;16.38;8.68;;;;;;;;;;5051061;28;20374;-68
2021/03/05 07:41:09;;;;;;;12.90;8.73;;;;;;;;;;5051127;28;20032;-68
2021/03/05 07:43:34;;;;;;;12.85;8.48;;;;;;;;;;5050706;28;20456;-68
2021/03/05 07:46:00;;;;;;;15.55;8.40;;;;;;;;;;5031969;28;20027;-68
2021/03/05 07:48:25;;;;;;;12.50;7.65;;;;;;;;;;5047791;28;20017;-68
2021/03/05 07:50:50;;;;;;;11.07;6.72;;;;;;;;;;5051377;28;20021;-68
2021/03/05 07:53:16;;;;;;;15.85;7.18;;;;;;;;;;5050066;28;20021;-66
2021/03/05 07:55:41;;;;;;;17.13;7.10;;;;;;;;;;5050528;28;20020;-67
2021/03/05 07:58:07;;;;;;;12.98;7.00;;;;;;;;;;5036975;28;20029;-66
2021/03/05 08:00:44;;;;;;;12.10;6.93;;;;;;;;;;5050970;28;20029;-66
2021/03/05 08:03:09;;;;;;;15.45;6.07;;;;;;;;;;5050648;28;20527;-67
2021/03/05 08:05:35;;;;;;;12.52;6.25;;;;;;;;;;5049721;28;20041;-67
2021/03/05 08:08:06;;;;;;;17.38;6.32;;;;;;;;;;5049721;28;20028;-67
2021/03/05 08:10:35;;;;;;;10.82;5.70;;;;;;;;;;5050708;28;20224;-67
2021/03/05 08:13:01;;;;;;;14.93;6.22;;;;;;;;;;5066232;28;20020;-68
2021/03/05 08:15:26;;;;;;;8.50;4.65;;;;;;;;;;5049786;28;20090;-68
2021/03/05 08:17:52;;;;;;;11.07;5.45;;;;;;;;;;5037394;28;20108;-68
2021/03/05 08:20:17;;;;;;;10.77;5.65;;;;;;;;;;5032112;28;20013;-68
2021/03/05 08:22:57;;;;;;;13.73;5.57;;;;;;;;;;5050155;28;20024;-68
2021/03/05 08:25:30;;;;;;;10.20;5.70;;;;;;;;;;5036809;28;20275;-68
2021/03/05 08:27:59;;;;;;;13.02;5.10;;;;;;;;;;5049665;28;20103;-68
2021/03/05 08:30:30;;;;;;;12.15;5.30;;;;;;;;;;5050037;28;20068;-68
2021/03/05 08:32:59;;;;;;;7.85;4.93;;;;;;;;;;5049713;28;20024;-68
2021/03/05 08:35:37;;;;;;;8.70;4.82;;;;;;;;;;5049699;28;20075;-68
2021/03/05 08:38:06;;;;;;;9.98;4.75;;;;;;;;;;5084757;22;20044;-89
2021/03/05 08:40:50;;;;;;;8.10;5.40;;;;;;;;;;5101231;28;20107;-90
2021/03/05 08:43:18;;;;;;;8.35;4.60;;;;;;;;;;5091572;28;20019;-89
2021/03/05 08:45:49;;;;;;;8.48;5.35;;;;;;;;;;5092055;28;20012;-89
2021/03/05 08:48:25;;;;;;;8.10;4.85;;;;;;;;;;5073865;28;20029;-90
2021/03/05 08:50:51;;;;;;;10.13;5.38;;;;;;;;;;5068699;28;20514;-88
2021/03/05 08:53:16;;;;;;;8.80;5.47;;;;;;;;;;5068904;28;20033;-90
2021/03/05 08:55:44;;;;;;;8.38;5.03;;;;;;;;;;5068251;28;20020;-91
2021/03/05 08:58:13;;;;;;;14.65;6.13;;;;;;;;;;5069101;28;20020;-89
2021/03/05 09:00:39;;;;;;;12.55;4.80;;;;;;;;;;5070898;28;20064;-90
2021/03/05 09:03:14;;;;;;;8.20;5.47;;;;;;;;;;5068567;28;20052;-89
2021/03/05 09:05:41;;;;;;;12.00;4.70;;;;;;;;;;5061788;28;20095;-90
2021/03/05 09:08:07;;;;;;;8.25;5.13;;;;;;;;;;5066962;28;20059;-90
2021/03/05 09:10:43;;;;;;;10.68;4.93;;;;;;;;;;5067912;28;20048;-89
2021/03/05 09:13:10;;;;;;;11.55;5.85;;;;;;;;;;5070892;28;20027;-88
2021/03/05 09:15:46;;;;;;;10.45;5.43;;;;;;;;;;5068168;28;20028;-88
2021/03/05 09:18:16;;;;;;;14.95;4.60;;;;;;;;;;5066676;28;20094;-91
2021/03/05 09:20:44;;;;;;;9.73;4.80;;;;;;;;;;5068431;28;20074;-89
2021/03/05 09:23:18;;;;;;;10.10;4.90;;;;;;;;;;5068628;28;20028;-88
2021/03/05 09:25:51;;;;;;;10.45;5.15;;;;;;;;;;5070348;28;20013;-89
2021/03/05 09:28:16;;;;;;;11.43;4.78;;;;;;;;;;5063969;28;20484;-90
2021/03/05 09:30:46;;;;;;;11.43;4.93;;;;;;;;;;5067957;28;20077;-89
2021/03/05 09:33:11;;;;;;;13.02;4.47;;;;;;;;;;5069477;28;20018;-89
2021/03/05 09:35:37;;;;;;;8.25;4.97;;;;;;;;;;5069996;28;20021;-91
2021/03/05 09:38:02;;;;;;;9.15;5.18;;;;;;;;;;5070801;28;20031;-88
2021/03/05 09:40:30;;;;;;;7.72;4.35;;;;;;;;;;5066510;28;20463;-88
2021/03/05 09:42:56;;;;;;;9.20;4.78;;;;;;;;;;5069101;28;20074;-88
2021/03/05 09:45:32;;;;;;;10.20;5.07;;;;;;;;;;5068005;28;20024;-89
2021/03/05 09:47:57;;;;;;;7.45;4.78;;;;;;;;;;5055180;28;20016;-89
2021/03/05 09:50:23;;;;;;;10.35;4.70;;;;;;;;;;5072793;28;20027;-89
2021/03/05 09:52:48;;;;;;;12.70;4.45;;;;;;;;;;5072543;28;20074;-89
2021/03/05 09:55:24;;;;;;;7.47;4.72;;;;;;;;;;5072380;28;20020;-89
2021/03/05 09:57:49;;;;;;;14.00;4.72;;;;;;;;;;5071854;28;20461;-89
2021/03/05 10:00:34;;;;;;;7.60;4.72;;;;;;;;;;5060029;28;20048;-88
2021/03/05 10:03:04;;;;;;;10.77;5.18;;;;;;;;;;5080817;28;20043;-89
2021/03/05 10:05:30;;;;;;;8.00;4.60;;;;;;;;;;5094761;28;20024;-91
2021/03/05 10:07:55;;;;;;;9.55;4.32;;;;;;;;;;5098357;28;20031;-90
2021/03/05 10:10:21;;;;;;;8.73;4.65;;;;;;;;;;5081195;28;20040;-88
2021/03/05 10:12:55;;;;;;;9.93;5.43;;;;;;;;;;5072905;28;20046;-88
2021/03/05 10:15:20;;;;;;;8.00;4.53;;;;;;;;;;5069349;28;20573;-90
2021/03/05 10:17:46;;;;;;;8.07;4.65;;;;;;;;;;5071610;28;20020;-89
2021/03/05 10:20:12;;;;;;;10.55;4.85;;;;;;;;;;5072485;28;20020;-88
2021/03/05 10:22:37;;;;;;;10.40;4.63;;;;;;;;;;5074756;28;20404;-88
2021/03/05 10:25:03;;;;;;;9.35;4.40;;;;;;;;;;5070648;28;20025;-88
2021/03/05 10:27:39;;;;;;;10.20;5.22;;;;;;;;;;5076052;28;20008;-89
2021/03/05 10:30:05;;;;;;;6.80;4.40;;;;;;;;;;5095114;28;20032;-90
2021/03/05 10:32:37;;;;;;;8.45;4.32;;;;;;;;;;5095308;28;20024;-90
2021/03/05 10:35:09;;;;;;;10.05;4.68;;;;;;;;;;5097491;28;20012;-89
2021/03/05 10:37:34;;;;;;;11.35;4.40;;;;;;;;;;5090648;28;20032;-89
2021/03/05 10:39:59;;;;;;;9.57;4.35;;;;;;;;;;5072627;28;20124;-89
2021/03/05 10:42:27;;;;;;;7.22;4.10;;;;;;;;;;5071071;28;20103;-89
2021/03/05 10:44:52;;;;;;;8.02;4.82;;;;;;;;;;5073174;28;20345;-91
2021/03/05 10:47:19;;;;;;;8.35;4.72;;;;;;;;;;5072700;28;20016;-89
2021/03/05 10:49:44;;;;;;;8.45;4.45;;;;;;;;;;5073482;28;20110;-90
2021/03/05 10:52:11;;;;;;;9.57;4.82;;;;;;;;;;5070764;28;20487;-89
2021/03/05 10:54:36;;;;;;;9.75;4.32;;;;;;;;;;5070116;28;20017;-89
2021/03/05 10:57:02;;;;;;;7.35;3.60;;;;;;;;;;5070712;28;20375;-90
2021/03/05 10:59:27;;;;;;;7.68;4.20;;;;;;;;;;5071327;28;20016;-89
2021/03/05 11:01:53;;;;;;;8.30;4.57;;;;;;;;;;5071757;28;20050;-89
2021/03/05 11:04:25;;;;;;;8.40;4.43;;;;;;;;;;5070787;28;20016;-90
2021/03/05 11:06:51;;;;;;;10.15;4.43;;;;;;;;;;5070085;28;20025;-89
2021/03/05 11:09:16;;;;;;;10.77;5.00;;;;;;;;;;5069891;28;20021;-86
2021/03/05 11:11:42;;;;;;;7.78;4.57;;;;;;;;;;5072210;28;20081;-89
2021/03/05 11:14:08;;;;;;;12.07;5.47;;;;;;;;;;5069854;28;20488;-88
2021/03/05 11:16:33;;;;;;;11.63;5.38;;;;;;;;;;5064333;28;20025;-88
2021/03/05 11:18:59;;;;;;;15.68;4.72;;;;;;;;;;5060251;28;20032;-88
2021/03/05 11:21:24;;;;;;;7.55;4.80;;;;;;;;;;5070071;28;20066;-88
2021/03/05 11:23:49;;;;;;;8.77;4.70;;;;;;;;;;5067967;28;20017;-89
2021/03/05 11:26:16;;;;;;;9.85;5.10;;;;;;;;;;5066013;28;20020;-88
2021/03/05 11:28:41;;;;;;;8.45;4.78;;;;;;;;;;5064941;28;20028;-87
2021/03/05 11:31:10;;;;;;;12.93;4.82;;;;;;;;;;5068635;28;20087;-89
2021/03/05 11:33:39;;;;;;;9.15;4.63;;;;;;;;;;5069348;28;20025;-86
2021/03/05 11:38:29;;;;;;;15.85;5.35;;;;;;;;;;5100536;22;20057;-87
2021/03/05 11:40:55;;;;;;;10.75;5.78;;;;;;;;;;5049294;28;20035;-87
2021/03/05 11:43:20;;;;;;;8.32;4.82;;;;;;;;;;5049514;28;20024;-87
2021/03/05 11:45:45;;;;;;;11.18;5.32;;;;;;;;;;5050433;28;20032;-87
2021/03/05 11:48:11;;;;;;;9.70;5.18;;;;;;;;;;5049341;28;20017;-87
2021/03/05 11:50:36;;;;;;;10.80;5.40;;;;;;;;;;5030794;28;20031;-87
2021/03/05 11:53:07;;;;;;;11.07;5.00;;;;;;;;;;5027964;28;20033;-87
2021/03/05 11:55:33;;;;;;;12.95;5.72;;;;;;;;;;5031274;28;20493;-87
2021/03/05 11:57:59;;;;;;;14.63;4.72;;;;;;;;;;5031649;28;20032;-87
2021/03/05 12:00:24;;;;;;;9.70;5.68;;;;;;;;;;5030475;28;20020;-87
2021/03/05 12:02:49;;;;;;;12.18;6.25;;;;;;;;;;5031166;28;20105;-86
2021/03/05 12:05:15;;;;;;;7.07;4.30;;;;;;;;;;5048357;28;20427;-87
2021/03/05 12:07:40;;;;;;;18.15;5.03;;;;;;;;;;5049393;28;20033;-87
2021/03/05 12:10:05;;;;;;;10.85;4.78;;;;;;;;;;5029029;28;20488;-86
2021/03/05 12:12:39;;;;;;;9.70;4.97;;;;;;;;;;5051607;28;20021;-91
2021/03/05 12:15:05;;;;;;;15.90;4.53;;;;;;;;;;5040470;28;20036;-86
2021/03/05 12:17:30;;;;;;;9.18;4.35;;;;;;;;;;5049901;28;20025;-88
2021/03/05 12:19:56;;;;;;;11.95;4.45;;;;;;;;;;5046505;28;20079;-90
2021/03/05 12:22:21;;;;;;;9.50;4.05;;;;;;;;;;5048672;28;20029;-87
2021/03/05 12:24:46;;;;;;;7.55;3.67;;;;;;;;;;5031423;28;20027;-90
2021/03/05 12:27:15;;;;;;;16.50;4.53;;;;;;;;;;5031754;28;20029;-90
2021/03/05 12:29:40;;;;;;;8.43;4.03;;;;;;;;;;5049890;28;20025;-88
2021/03/05 12:32:19;;;;;;;;;;;;;;;;;;;;;
2021/03/05 12:34:46;;;;;;;8.38;3.38;;;;;;;;;;5047553;28;20526;-89
2021/03/05 12:37:17;;;;;;;7.75;4.50;;;;;;;;;;5026755;28;20109;-88
2021/03/05 12:39:43;;;;;;;11.77;4.10;;;;;;;;;;5022724;28;20377;-89
2021/03/05 12:42:08;;;;;;;13.90;4.70;;;;;;;;;;5032496;28;20027;-90
2021/03/05 12:44:33;;;;;;;6.45;3.28;;;;;;;;;;5026852;28;20029;-89
2021/03/05 12:47:02;;;;;;;7.47;3.70;;;;;;;;;;5032137;28;20020;-89
2021/03/05 12:49:27;;;;;;;5.57;3.75;;;;;;;;;;5031427;28;20514;-89
2021/03/05 12:51:52;;;;;;;7.47;4.00;;;;;;;;;;5049592;28;20104;-89
2021/03/05 12:54:18;;;;;;;7.57;3.58;;;;;;;;;;5047121;28;20053;-89
2021/03/05 12:56:43;;;;;;;6.10;3.25;;;;;;;;;;5029661;28;20033;-89
2021/03/05 12:59:20;;;;;;;6.82;3.60;;;;;;;;;;5029542;28;20152;-90
2021/03/05 13:01:56;;;;;;;;;;;;;;;;;;;;;
2021/03/05 13:04:22;;;;;;;8.20;3.95;;;;;;;;;;5052070;28;20028;-89
2021/03/05 13:06:47;;;;;;;6.55;3.05;;;;;;;;;;5016844;28;20116;-89
2021/03/05 13:09:17;;;;;;;4.63;2.90;;;;;;;;;;5049388;28;20046;-90
2021/03/05 13:11:42;;;;;;;10.10;3.22;;;;;;;;;;5049485;28;20033;-89
2021/03/05 13:14:27;;;;;;;;;;;;;;;;;;;;;
2021/03/05 13:16:53;;;;;;;8.05;2.50;;;;;;;;;;5029327;28;20030;-88
2021/03/05 13:19:18;;;;;;;7.88;2.90;;;;;;;;;;5049190;28;20096;-89
2021/03/05 13:21:43;;;;;;;11.32;5.57;;;;;;;;;;5056375;28;20028;-88
2021/03/05 13:24:09;;;;;;;5.07;2.72;;;;;;;;;;5059519;28;20009;-88
2021/03/05 13:26:34;;;;;;;7.38;3.03;;;;;;;;;;5047144;28;20020;-88
2021/03/05 13:29:02;;;;;;;3.10;1.55;;;;;;;;;;5042087;28;20391;-88
2021/03/05 13:31:27;;;;;;;10.30;3.55;;;;;;;;;;5036246;28;20509;-88
2021/03/05 13:33:52;;;;;;;6.40;2.88;;;;;;;;;;5028174;28;20116;-89
2021/03/05 13:36:18;;;;;;;8.73;3.17;;;;;;;;;;5044983;28;20025;-89
2021/03/05 13:38:46;;;;;;;6.35;2.58;;;;;;;;;;5035631;28;20025;-88
2021/03/05 13:41:12;;;;;;;8.00;2.33;;;;;;;;;;5053617;28;20032;-89
2021/03/05 13:43:37;;;;;;;11.93;3.70;;;;;;;;;;5034159;28;20017;-88
2021/03/05 13:46:03;;;;;;;5.25;2.67;;;;;;;;;;5033791;28;20043;-88
2021/03/05 13:48:28;;;;;;;8.73;3.25;;;;;;;;;;5053223;28;20025;-89
2021/03/05 13:50:59;;;;;;;6.07;3.00;;;;;;;;;;5033756;28;20401;-89
2021/03/05 13:53:40;;;;;;;9.43;2.80;;;;;;;;;;5027284;28;20026;-88
2021/03/05 13:56:06;;;;;;;3.95;2.33;;;;;;;;;;5055081;28;20485;-89
2021/03/05 13:58:32;;;;;;;11.10;2.92;;;;;;;;;;5053723;28;20020;-89
2021/03/05 14:00:57;;;;;;;13.65;3.00;;;;;;;;;;5033520;28;20052;-88
2021/03/05 14:03:26;;;;;;;8.00;2.63;;;;;;;;;;5033022;28;20028;-88
2021/03/05 14:05:54;;;;;;;5.38;2.28;;;;;;;;;;5051632;28;20436;-89
2021/03/05 14:08:20;;;;;;;6.20;2.10;;;;;;;;;;5052165;28;20045;-88
2021/03/05 14:10:45;;;;;;;3.80;1.70;;;;;;;;;;5066743;28;20059;-89
2021/03/05 14:13:11;;;;;;;9.07;2.55;;;;;;;;;;5033674;28;20481;-88
2021/03/05 14:15:36;;;;;;;12.07;2.28;;;;;;;;;;5052247;28;20048;-88
2021/03/05 14:18:07;;;;;;;6.63;1.60;;;;;;;;;;5033817;28;20143;-89
2021/03/05 14:20:54;;;;;;;7.45;2.25;;;;;;;;;;5034400;28;20106;-90
2021/03/05 14:23:19;;;;;;;4.65;1.95;;;;;;;;;;5095728;22;20055;-65
2021/03/05 14:25:45;;;;;;;4.82;2.03;;;;;;;;;;5085701;28;20032;-64
2021/03/05 14:28:10;;;;;;;7.35;2.20;;;;;;;;;;5091455;28;20077;-65
2021/03/05 14:30:35;;;;;;;8.20;2.25;;;;;;;;;;5092514;28;20028;-65
2021/03/05 14:33:01;;;;;;;5.20;1.77;;;;;;;;;;5076046;28;20086;-66